Time;durP1;ratioP1;P1;durP2;ratioP2;P2;SDS_P1;SDS_P2;PMS_P1;PMS_P2;Temp;Humidity;BMP_temperature;BMP_pressure;BME280_temperature;BME280_humidity;BME280_pressure;Samples;Min_cycle;Max_cycle;Signal;HPM_P1;HPM_P2
2021/06/04 00:01:36;;;;;;;7.27;6.53;;;19.40;1.00;;;;;;5092736;28;20515;-64
2021/06/04 00:04:02;;;;;;;7.20;6.50;;;19.30;1.00;;;;;;5112816;28;20198;-63
2021/06/04 00:06:28;;;;;;;6.93;6.33;;;19.40;1.00;;;;;;5112158;28;20488;-64
2021/06/04 00:08:54;;;;;;;8.13;7.43;;;19.40;1.00;;;;;;5111341;28;20523;-65
2021/06/04 00:11:23;;;;;;;7.93;7.23;;;19.40;1.00;;;;;;5094137;28;20201;-66
2021/06/04 00:13:55;;;;;;;7.10;6.50;;;19.30;1.00;;;;;;5112224;28;20496;-64
2021/06/04 00:16:32;;;;;;;7.23;6.53;;;19.30;1.00;;;;;;5111913;28;20489;-65
2021/06/04 00:19:01;;;;;;;8.73;6.67;;;19.20;1.00;;;;;;5112360;28;20443;-66
2021/06/04 00:21:30;;;;;;;7.10;6.40;;;19.30;1.00;;;;;;5112273;28;20577;-65
2021/06/04 00:23:58;;;;;;;7.30;6.50;;;19.20;1.00;;;;;;5092818;28;20460;-65
2021/06/04 00:26:25;;;;;;;6.77;6.17;;;19.20;1.00;;;;;;5111194;28;20443;-65
2021/06/04 00:28:50;;;;;;;7.47;6.70;;;19.20;1.00;;;;;;5093060;28;20436;-65
2021/06/04 00:31:17;;;;;;;7.27;6.57;;;19.10;1.00;;;;;;5093679;28;20604;-64
2021/06/04 00:33:43;;;;;;;6.83;6.20;;;19.10;1.00;;;;;;5111905;28;20182;-65
2021/06/04 00:36:11;;;;;;;8.60;6.77;;;19.10;1.00;;;;;;5112119;28;20467;-65
2021/06/04 00:38:37;;;;;;;7.40;6.37;;;19.00;1.00;;;;;;5107435;27;20937;-64
2021/06/04 00:41:14;;;;;;;7.90;6.23;;;18.90;1.00;;;;;;5111540;28;20525;-63
2021/06/04 00:43:40;;;;;;;6.53;6.03;;;18.90;1.00;;;;;;5109172;28;20221;-64
2021/06/04 00:46:07;;;;;;;7.37;6.77;;;18.90;1.00;;;;;;5111446;28;20933;-64
2021/06/04 00:48:34;;;;;;;7.67;7.07;;;18.90;1.00;;;;;;5112027;28;20273;-65
2021/06/04 00:51:07;;;;;;;9.20;5.80;;;18.90;1.00;;;;;;5111514;28;20461;-64
2021/06/04 00:53:34;;;;;;;6.87;6.37;;;18.90;1.00;;;;;;5111166;28;20474;-66
2021/06/04 00:56:00;;;;;;;6.57;6.00;;;18.90;1.00;;;;;;5111758;28;20488;-65
2021/06/04 00:58:30;;;;;;;7.80;7.00;;;18.80;1.00;;;;;;5110714;28;21128;-65
2021/06/04 01:00:58;;;;;;;8.83;7.70;;;18.80;1.00;;;;;;5111494;28;20639;-63
2021/06/04 01:03:26;;;;;;;7.20;6.47;;;18.80;1.00;;;;;;5110828;28;20464;-64
2021/06/04 01:05:57;;;;;;;6.97;6.37;;;18.70;1.00;;;;;;5108382;28;20432;-64
2021/06/04 01:08:41;;;;;;;7.27;6.67;;;18.70;1.00;;;;;;5112896;27;20949;-63
2021/06/04 01:11:27;;;;;;;7.33;6.47;;;18.70;1.00;;;;;;5111292;28;20623;-63
2021/06/04 01:14:28;;;;;;;6.60;5.90;;;18.60;1.00;;;;;;5092547;28;20470;-63
2021/06/04 01:17:14;;;;;;;5.97;5.47;;;18.60;1.00;;;;;;5109852;28;20455;-63
2021/06/04 01:20:01;;;;;;;6.80;6.20;;;18.60;1.00;;;;;;5108741;28;20548;-63
2021/06/04 01:22:44;;;;;;;7.30;6.73;;;18.60;1.00;;;;;;5110890;28;20436;-63
2021/06/04 01:25:58;;;;;;;6.23;5.73;;;18.60;1.00;;;;;;5110762;28;20573;-64
2021/06/04 01:28:30;;;;;;;8.00;7.20;;;18.60;1.00;;;;;;5105586;28;20963;-66
2021/06/04 01:31:01;;;;;;;7.57;6.70;;;18.60;1.00;;;;;;5111025;28;20481;-64
2021/06/04 01:33:35;;;;;;;6.83;6.30;;;18.60;1.00;;;;;;5106671;28;20440;-63
2021/06/04 01:36:01;;;;;;;6.97;6.37;;;18.60;1.00;;;;;;5110527;28;20496;-64
2021/06/04 01:38:31;;;;;;;6.73;6.23;;;18.60;1.00;;;;;;5110419;28;21024;-64
2021/06/04 01:41:04;;;;;;;11.50;6.83;;;18.60;1.00;;;;;;5109696;28;20482;-65
2021/06/04 01:43:36;;;;;;;6.30;5.80;;;18.70;1.00;;;;;;5110407;28;20530;-64
2021/06/04 01:46:14;;;;;;;6.33;5.80;;;18.60;1.00;;;;;;5076043;28;20440;-65
2021/06/04 01:48:43;;;;;;;6.50;5.90;;;18.50;1.00;;;;;;5109249;28;20475;-64
2021/06/04 01:51:23;;;;;;;6.70;6.20;;;18.50;1.00;;;;;;5109864;28;20512;-65
2021/06/04 01:53:58;;;;;;;6.70;6.20;;;18.50;1.00;;;;;;5092012;28;20493;-65
2021/06/04 01:56:28;;;;;;;6.87;6.37;;;18.50;1.00;;;;;;5092882;28;20443;-65
2021/06/04 01:59:07;;;;;;;7.60;6.90;;;18.40;1.00;;;;;;5107862;28;20431;-65
2021/06/04 02:01:39;;;;;;;7.27;6.57;;;18.40;1.00;;;;;;5110418;28;20482;-64
2021/06/04 02:04:12;;;;;;;7.60;7.03;;;18.40;1.00;;;;;;5109829;28;20551;-64
2021/06/04 02:06:37;;;;;;;7.80;7.10;;;18.40;1.00;;;;;;5109263;28;20451;-65
2021/06/04 02:09:09;;;;;;;7.63;6.83;;;18.30;1.00;;;;;;5110047;28;20440;-64
2021/06/04 02:11:35;;;;;;;7.00;6.40;;;18.20;1.00;;;;;;5110172;28;20600;-63
2021/06/04 02:14:05;;;;;;;7.10;6.50;;;18.20;1.00;;;;;;5110264;28;20467;-64
2021/06/04 02:16:48;;;;;;;6.50;6.00;;;18.20;1.00;;;;;;5109777;28;20190;-65
2021/06/04 02:19:51;;;;;;;6.87;6.27;;;18.20;1.00;;;;;;5110176;28;20924;-64
2021/06/04 02:22:50;;;;;;;6.93;6.13;;;18.20;1.00;;;;;;5109309;28;20512;-64
2021/06/04 02:25:31;;;;;;;7.83;7.00;;;18.20;1.00;;;;;;5109401;28;20548;-64
2021/06/04 02:28:05;;;;;;;6.60;6.10;;;18.30;1.00;;;;;;5108992;28;20428;-65
2021/06/04 02:30:35;;;;;;;6.07;5.57;;;18.30;1.00;;;;;;5100710;28;20432;-63
2021/06/04 02:33:05;;;;;;;7.30;6.20;;;18.40;1.00;;;;;;5105273;28;20538;-63
2021/06/04 02:35:36;;;;;;;6.57;5.90;;;18.40;1.00;;;;;;5109758;28;20955;-64
2021/06/04 02:38:19;;;;;;;7.40;6.90;;;18.40;1.00;;;;;;5110138;28;20450;-64
2021/06/04 02:40:49;;;;;;;7.00;6.40;;;18.50;1.00;;;;;;5108020;28;20457;-65
2021/06/04 02:43:25;;;;;;;6.67;6.03;;;18.60;1.00;;;;;;5109506;28;20478;-63
2021/06/04 02:46:30;;;;;;;6.93;6.23;;;18.70;1.00;;;;;;5109375;28;20447;-63
2021/06/04 02:48:56;;;;;;;7.00;6.30;;;18.80;1.00;;;;;;5089443;28;20447;-64
2021/06/04 02:51:27;;;;;;;6.50;5.70;;;18.90;1.00;;;;;;5110501;28;20504;-64
2021/06/04 02:54:05;;;;;;;6.37;5.83;;;18.90;1.00;;;;;;5113607;28;20332;-63
2021/06/04 02:56:41;;;;;;;6.83;6.23;;;19.00;1.00;;;;;;5095658;28;20439;-63
2021/06/04 02:59:32;;;;;;;6.40;5.80;;;19.00;1.00;;;;;;5106677;28;20447;-63
2021/06/04 03:02:02;;;;;;;6.40;5.90;;;19.00;1.00;;;;;;5101995;28;20952;-64
2021/06/04 03:04:31;;;;;;;6.93;6.20;;;18.90;1.00;;;;;;5113687;27;20491;-62
2021/06/04 03:07:01;;;;;;;10.10;5.77;;;18.80;1.00;;;;;;5113614;28;21051;-63
2021/06/04 03:09:31;;;;;;;6.60;5.77;;;18.90;1.00;;;;;;5101615;28;20531;-65
2021/06/04 03:12:01;;;;;;;7.30;6.60;;;18.90;1.00;;;;;;5113237;28;20431;-64
2021/06/04 03:14:27;;;;;;;6.77;6.10;;;19.00;1.00;;;;;;5112598;28;20586;-65
2021/06/04 03:16:57;;;;;;;7.03;6.43;;;19.00;1.00;;;;;;5113601;28;20601;-64
2021/06/04 03:19:23;;;;;;;7.17;6.47;;;18.90;1.00;;;;;;5094557;28;20436;-64
2021/06/04 03:22:00;;;;;;;8.00;6.10;;;18.80;1.00;;;;;;5113369;28;20719;-63
2021/06/04 03:24:30;;;;;;;7.37;6.17;;;18.80;1.00;;;;;;5113044;28;20467;-64
2021/06/04 03:26:57;;;;;;;7.90;6.93;;;18.80;1.00;;;;;;5113313;28;20444;-64
2021/06/04 03:29:24;;;;;;;6.80;6.23;;;18.80;1.00;;;;;;5112680;28;20953;-66
2021/06/04 03:31:56;;;;;;;6.40;5.80;;;18.90;1.00;;;;;;5112675;28;20470;-64
2021/06/04 03:34:23;;;;;;;6.43;5.87;;;19.00;1.00;;;;;;5112974;28;20484;-64
2021/06/04 03:36:50;;;;;;;6.33;5.83;;;19.10;1.00;;;;;;5112911;28;20492;-63
2021/06/04 03:39:29;;;;;;;6.57;5.97;;;19.10;1.00;;;;;;5113350;27;20455;-63
2021/06/04 03:41:56;;;;;;;6.97;6.33;;;19.10;1.00;;;;;;5112308;28;20812;-63
2021/06/04 03:44:25;;;;;;;5.97;5.37;;;19.10;1.00;;;;;;5113207;27;20488;-64
2021/06/04 03:46:51;;;;;;;6.47;5.87;;;19.10;1.00;;;;;;5109639;28;20455;-63
2021/06/04 03:49:19;;;;;;;6.70;6.20;;;19.20;1.00;;;;;;5111505;28;20448;-64
2021/06/04 03:51:47;;;;;;;6.67;6.07;;;19.20;1.00;;;;;;5110766;28;20516;-64
2021/06/04 03:54:17;;;;;;;7.13;6.50;;;19.30;1.00;;;;;;5109975;27;20440;-64
2021/06/04 03:56:44;;;;;;;5.93;5.43;;;19.40;1.00;;;;;;5112199;27;20446;-63
2021/06/04 03:59:10;;;;;;;7.57;5.80;;;19.40;1.00;;;;;;5105661;27;20441;-60
2021/06/04 04:01:43;;;;;;;8.60;6.20;;;19.50;1.00;;;;;;5111407;28;20436;-60
2021/06/04 04:04:09;;;;;;;7.10;6.40;;;19.40;1.00;;;;;;5112962;27;20205;-61
2021/06/04 04:06:35;;;;;;;10.17;6.50;;;19.50;1.00;;;;;;5095634;27;20444;-60
2021/06/04 04:09:02;;;;;;;10.10;5.80;;;19.60;1.00;;;;;;5111249;27;20435;-59
2021/06/04 04:11:27;;;;;;;5.80;5.30;;;19.70;1.00;;;;;;5093945;28;20209;-60
2021/06/04 04:13:53;;;;;;;6.50;5.80;;;19.70;1.00;;;;;;5079507;28;20460;-60
2021/06/04 04:16:19;;;;;;;8.30;6.10;;;19.70;1.00;;;;;;5093880;28;20190;-60
2021/06/04 04:18:44;;;;;;;9.17;6.30;;;19.70;1.00;;;;;;5093799;28;20174;-59
2021/06/04 04:21:12;;;;;;;6.50;5.90;;;19.60;1.00;;;;;;5093977;28;20186;-58
2021/06/04 04:23:49;;;;;;;6.40;5.80;;;19.70;1.00;;;;;;5111636;28;20655;-58
2021/06/04 04:26:18;;;;;;;6.70;6.00;;;19.70;1.00;;;;;;5112201;28;20518;-60
2021/06/04 04:28:49;;;;;;;6.70;6.03;;;19.70;1.00;;;;;;5111919;28;20482;-60
2021/06/04 04:31:20;;;;;;;7.30;6.40;;;19.70;1.00;;;;;;5111370;28;20448;-58
2021/06/04 04:33:46;;;;;;;14.40;5.80;;;19.80;1.00;;;;;;5096580;28;20472;-59
2021/06/04 04:36:16;;;;;;;8.13;6.90;;;19.80;1.00;;;;;;5110953;27;20448;-59
2021/06/04 04:38:42;;;;;;;6.20;5.33;;;20.00;1.00;;;;;;5111882;27;20459;-60
2021/06/04 04:41:08;;;;;;;6.40;5.80;;;20.00;1.00;;;;;;5111266;28;20479;-60
2021/06/04 04:43:40;;;;;;;7.17;6.33;;;20.10;1.00;;;;;;5111222;28;20702;-59
2021/06/04 04:46:08;;;;;;;7.80;5.70;;;20.20;1.00;;;;;;5092521;28;20770;-58
2021/06/04 04:48:34;;;;;;;6.93;6.20;;;20.30;1.00;;;;;;5111080;28;20452;-60
2021/06/04 04:50:59;;;;;;;6.73;5.57;;;20.40;1.00;;;;;;5111154;28;20441;-59
2021/06/04 04:53:25;;;;;;;6.87;5.83;;;20.40;1.00;;;;;;5106929;27;20182;-61
2021/06/04 04:55:51;;;;;;;7.30;6.00;;;20.30;1.00;;;;;;5110361;27;20181;-61
2021/06/04 04:58:18;;;;;;;7.03;6.43;;;20.20;1.00;;;;;;5108708;28;20861;-61
2021/06/04 05:00:44;;;;;;;6.47;5.77;;;20.10;1.00;;;;;;5111106;28;20452;-60
2021/06/04 05:03:12;;;;;;;7.90;5.93;;;20.10;1.00;;;;;;5099968;28;20470;-60
2021/06/04 05:05:39;;;;;;;6.07;5.57;;;20.10;1.00;;;;;;5110913;28;20271;-59
2021/06/04 05:08:06;;;;;;;7.03;6.30;;;20.10;1.00;;;;;;5102474;28;20438;-61
2021/06/04 05:10:32;;;;;;;5.80;5.30;;;20.20;1.00;;;;;;5110682;28;20439;-59
2021/06/04 05:12:58;;;;;;;5.47;4.93;;;20.30;1.00;;;;;;5091629;28;20950;-60
2021/06/04 05:15:28;;;;;;;5.83;5.33;;;20.40;1.00;;;;;;5110711;28;20447;-60
2021/06/04 05:17:54;;;;;;;6.10;5.50;;;20.50;1.00;;;;;;5110330;28;20525;-60
2021/06/04 05:20:20;;;;;;;6.17;5.57;;;20.60;1.00;;;;;;5092128;28;21013;-58
2021/06/04 05:22:47;;;;;;;6.30;5.70;;;20.60;1.00;;;;;;5111132;28;20193;-59
2021/06/04 05:25:19;;;;;;;5.90;5.30;;;20.60;1.00;;;;;;5110578;28;20602;-59
2021/06/04 05:27:45;;;;;;;6.60;5.27;;;20.40;1.00;;;;;;5110620;28;20439;-59
2021/06/04 05:30:19;;;;;;;6.50;5.60;;;20.70;1.00;;;;;;5110638;28;20436;-58
2021/06/04 05:32:44;;;;;;;6.43;5.77;;;20.80;1.00;;;;;;5110733;28;20174;-59
2021/06/04 05:35:11;;;;;;;6.77;5.10;;;20.80;1.00;;;;;;5110632;28;20450;-61
2021/06/04 05:37:37;;;;;;;8.67;6.00;;;20.80;1.00;;;;;;5110229;28;20647;-60
2021/06/04 05:40:07;;;;;;;7.70;5.90;;;20.80;1.00;;;;;;5110717;28;20446;-59
2021/06/04 05:42:33;;;;;;;9.93;5.43;;;20.80;1.00;;;;;;5109620;27;20732;-59
2021/06/04 05:44:59;;;;;;;7.80;5.37;;;20.80;1.00;;;;;;5097331;28;20528;-60
2021/06/04 05:47:24;;;;;;;6.00;5.40;;;21.00;1.00;;;;;;5110644;28;20468;-59
2021/06/04 05:49:50;;;;;;;6.17;5.67;;;21.10;1.00;;;;;;5110217;28;20274;-59
2021/06/04 05:52:16;;;;;;;5.50;5.00;;;21.00;1.00;;;;;;5092342;28;20757;-61
2021/06/04 05:54:44;;;;;;;10.33;5.63;;;21.00;1.00;;;;;;5110603;28;20527;-59
2021/06/04 05:57:10;;;;;;;5.63;5.13;;;21.00;1.00;;;;;;5110475;28;20907;-60
2021/06/04 05:59:36;;;;;;;6.00;5.40;;;20.90;1.00;;;;;;5102455;28;20778;-60
2021/06/04 06:02:02;;;;;;;6.57;5.60;;;20.90;1.00;;;;;;5109886;28;20466;-61
2021/06/04 06:04:28;;;;;;;5.80;5.27;;;21.00;1.00;;;;;;5109687;28;20205;-60
2021/06/04 06:06:53;;;;;;;7.83;6.20;;;21.10;1.00;;;;;;5108892;28;20467;-59
2021/06/04 06:09:22;;;;;;;6.50;5.83;;;21.10;1.00;;;;;;5110191;28;20539;-60
2021/06/04 06:11:49;;;;;;;11.27;5.90;;;21.20;1.00;;;;;;5104341;28;20246;-59
2021/06/04 06:14:16;;;;;;;6.00;5.40;;;21.40;1.00;;;;;;5091546;28;20458;-61
2021/06/04 06:16:43;;;;;;;6.30;5.70;;;21.50;1.00;;;;;;5103074;28;21009;-60
2021/06/04 06:19:12;;;;;;;9.60;5.77;;;21.60;1.00;;;;;;5112144;28;20501;-59
2021/06/04 06:21:40;;;;;;;6.20;5.60;;;21.60;1.00;;;;;;5109157;28;20439;-62
2021/06/04 06:24:07;;;;;;;6.17;5.53;;;21.50;1.00;;;;;;5104876;28;20464;-60
2021/06/04 06:26:33;;;;;;;5.73;5.17;;;21.40;1.00;;;;;;5109938;28;20439;-60
2021/06/04 06:29:00;;;;;;;9.10;6.50;;;21.50;1.00;;;;;;5114284;28;20442;-59
2021/06/04 06:31:30;;;;;;;6.93;5.50;;;21.60;1.00;;;;;;5114323;28;20439;-59
2021/06/04 06:33:56;;;;;;;8.50;5.03;;;21.60;1.00;;;;;;5113980;28;20435;-59
2021/06/04 06:36:26;;;;;;;7.70;5.60;;;21.80;1.00;;;;;;5111093;27;20439;-61
2021/06/04 06:39:00;;;;;;;5.80;5.20;;;21.90;1.00;;;;;;5113941;28;20188;-60
2021/06/04 06:41:27;;;;;;;5.80;5.30;;;22.00;1.00;;;;;;5113528;28;20463;-61
2021/06/04 06:43:53;;;;;;;8.27;6.17;;;21.90;1.00;;;;;;5100915;28;20991;-60
2021/06/04 06:46:21;;;;;;;7.43;5.10;;;22.00;1.00;;;;;;5113727;28;20471;-60
2021/06/04 06:48:47;;;;;;;6.70;6.07;;;22.10;1.00;;;;;;5113307;28;20178;-59
2021/06/04 06:51:13;;;;;;;6.73;5.80;;;22.10;1.00;;;;;;5113930;28;20444;-61
2021/06/04 06:53:41;;;;;;;8.50;6.47;;;22.20;1.00;;;;;;5114057;28;20579;-60
2021/06/04 06:56:08;;;;;;;6.80;6.07;;;22.20;1.00;;;;;;5113944;27;20843;-60
2021/06/04 06:58:35;;;;;;;6.17;5.67;;;22.30;1.00;;;;;;5113459;28;20451;-58
2021/06/04 07:01:03;;;;;;;5.93;5.33;;;22.30;1.00;;;;;;5113463;28;20632;-60
2021/06/04 07:03:30;;;;;;;6.53;5.80;;;22.40;1.00;;;;;;5113919;27;20562;-61
2021/06/04 07:06:00;;;;;;;7.33;5.87;;;22.50;1.00;;;;;;5113515;28;20865;-60
2021/06/04 07:08:26;;;;;;;6.17;5.67;;;22.60;1.00;;;;;;5113565;28;20484;-61
2021/06/04 07:10:52;;;;;;;7.40;6.80;;;22.70;1.00;;;;;;5111200;27;20448;-59
2021/06/04 07:13:25;;;;;;;8.27;6.00;;;22.70;1.00;;;;;;5109617;27;20845;-61
2021/06/04 07:15:54;;;;;;;6.23;5.57;;;22.70;1.00;;;;;;5109216;28;20443;-61
2021/06/04 07:18:20;;;;;;;11.07;5.90;;;22.80;1.00;;;;;;5091477;28;20805;-60
2021/06/04 07:20:45;;;;;;;9.03;5.60;;;22.70;1.00;;;;;;5103736;28;20441;-59
2021/06/04 07:23:12;;;;;;;6.40;5.80;;;22.70;1.00;;;;;;5092962;28;20455;-58
2021/06/04 07:25:40;;;;;;;7.50;6.67;;;22.80;1.00;;;;;;5100595;28;20187;-59
2021/06/04 07:28:08;;;;;;;6.60;6.00;;;22.90;1.00;;;;;;5095054;28;20440;-58
2021/06/04 07:30:39;;;;;;;6.30;5.67;;;22.90;1.00;;;;;;5113555;28;20436;-59
2021/06/04 07:33:12;;;;;;;8.93;5.90;;;22.90;1.00;;;;;;5113256;28;20460;-60
2021/06/04 07:35:39;;;;;;;5.97;5.40;;;22.90;1.00;;;;;;5113648;27;20466;-60
2021/06/04 07:38:06;;;;;;;6.70;5.67;;;22.90;1.00;;;;;;5112426;28;20446;-59
2021/06/04 07:40:32;;;;;;;6.43;5.53;;;22.90;1.00;;;;;;5113224;28;20447;-59
2021/06/04 07:43:00;;;;;;;7.53;6.37;;;23.00;1.00;;;;;;5112827;28;20469;-59
2021/06/04 07:45:31;;;;;;;6.80;6.10;;;23.20;1.00;;;;;;5113299;28;20975;-59
2021/06/04 07:47:57;;;;;;;6.03;5.47;;;23.20;1.00;;;;;;5113270;28;20515;-60
2021/06/04 07:50:22;;;;;;;6.90;5.70;;;23.30;1.00;;;;;;5105138;27;20476;-60
2021/06/04 07:52:48;;;;;;;6.33;5.73;;;23.50;1.00;;;;;;5092732;28;20541;-60
2021/06/04 07:55:14;;;;;;;6.50;5.90;;;23.50;1.00;;;;;;5099436;28;20193;-59
2021/06/04 07:57:40;;;;;;;9.80;5.90;;;23.50;1.00;;;;;;5094093;28;20178;-60
2021/06/04 08:00:10;;;;;;;5.60;5.10;;;23.60;1.00;;;;;;5112970;28;20828;-59
2021/06/04 08:02:35;;;;;;;6.97;6.27;;;23.60;1.00;;;;;;5111743;28;20214;-60
2021/06/04 08:05:03;;;;;;;6.03;5.53;;;23.80;1.00;;;;;;5112337;28;20495;-60
2021/06/04 08:07:29;;;;;;;9.83;5.90;;;23.90;1.00;;;;;;5111503;28;20254;-58
2021/06/04 08:09:55;;;;;;;8.07;6.27;;;24.10;1.00;;;;;;5112534;28;20435;-59
2021/06/04 08:12:30;;;;;;;7.73;6.20;;;24.50;1.00;;;;;;5094050;28;20582;-61
2021/06/04 08:14:59;;;;;;;6.70;6.00;;;24.70;1.00;;;;;;5093767;28;20805;-59
2021/06/04 08:17:27;;;;;;;6.40;5.30;;;24.90;1.00;;;;;;5111919;28;20488;-57
2021/06/04 08:19:53;;;;;;;6.60;6.00;;;25.10;1.00;;;;;;5108478;28;20441;-61
2021/06/04 08:22:19;;;;;;;5.70;5.20;;;25.30;1.00;;;;;;5092068;28;20451;-59
2021/06/04 08:24:45;;;;;;;7.23;5.40;;;25.20;1.00;;;;;;5109063;28;20459;-59
2021/06/04 08:27:14;;;;;;;7.13;6.53;;;25.00;1.00;;;;;;5112098;28;20439;-60
2021/06/04 08:29:43;;;;;;;7.03;6.33;;;25.20;1.00;;;;;;5111392;28;20432;-60
2021/06/04 08:32:11;;;;;;;5.90;5.40;;;25.30;1.00;;;;;;5112298;28;20485;-59
2021/06/04 08:34:37;;;;;;;5.93;5.43;;;25.50;1.00;;;;;;5093934;28;20964;-58
2021/06/04 08:37:04;;;;;;;6.00;5.43;;;25.70;1.00;;;;;;5111747;28;20438;-59
2021/06/04 08:39:32;;;;;;;6.13;5.60;;;25.80;1.00;;;;;;5112293;28;20439;-58
2021/06/04 08:42:21;;;;;;;6.33;5.70;;;25.90;1.00;;;;;;5111775;28;20525;-59
2021/06/04 08:45:09;;;;;;;6.17;5.67;;;26.00;1.00;;;;;;5111758;28;20602;-58
2021/06/04 08:47:35;;;;;;;7.57;6.10;;;26.10;1.00;;;;;;5112027;28;20436;-61
2021/06/04 08:50:10;;;;;;;5.27;4.80;;;26.10;1.00;;;;;;5111348;28;20527;-60
2021/06/04 08:52:58;;;;;;;6.50;5.77;;;26.10;1.00;;;;;;5111944;28;20510;-61
2021/06/04 08:55:45;;;;;;;8.37;5.67;;;26.10;1.00;;;;;;5105637;28;20440;-59
2021/06/04 08:58:34;;;;;;;9.47;6.03;;;25.80;1.00;;;;;;5091582;28;20481;-58
2021/06/04 09:01:05;;;;;;;6.50;5.43;;;25.70;1.00;;;;;;5091440;28;20437;-60
2021/06/04 09:04:00;;;;;;;6.73;6.00;;;25.60;1.00;;;;;;5109447;27;20915;-59
2021/06/04 09:06:40;;;;;;;6.30;5.70;;;25.40;1.00;;;;;;5091408;28;20444;-59
2021/06/04 09:09:23;;;;;;;8.20;6.10;;;25.40;1.00;;;;;;5091163;28;20519;-59
2021/06/04 09:11:53;;;;;;;6.60;5.30;;;25.30;1.00;;;;;;5091109;28;20429;-58
2021/06/04 09:14:20;;;;;;;12.80;5.87;;;24.90;1.00;;;;;;5091546;28;20455;-61
2021/06/04 09:16:52;;;;;;;7.13;6.20;;;24.90;1.00;;;;;;5091241;28;20445;-58
2021/06/04 09:19:47;;;;;;;6.63;5.97;;;24.90;1.00;;;;;;5091217;28;20456;-61
2021/06/04 09:22:13;;;;;;;8.30;6.80;;;25.10;1.00;;;;;;5090953;28;20440;-59
2021/06/04 09:24:49;;;;;;;10.67;6.70;;;25.30;1.00;;;;;;5090987;28;20548;-59
2021/06/04 09:27:37;;;;;;;8.87;7.00;;;25.20;1.00;;;;;;5091061;28;20436;-59
2021/06/04 09:30:14;;;;;;;6.70;6.00;;;25.00;1.00;;;;;;5072660;28;20460;-60
2021/06/04 09:32:41;;;;;;;9.47;6.30;;;25.20;1.00;;;;;;5099328;28;20443;-60
2021/06/04 09:35:16;;;;;;;8.17;7.27;;;25.30;1.00;;;;;;5111392;27;20536;-60
2021/06/04 09:37:42;;;;;;;8.70;6.90;;;25.60;1.00;;;;;;5111494;28;20443;-59
2021/06/04 09:40:20;;;;;;;7.30;6.60;;;25.70;1.00;;;;;;5111342;28;20451;-60
2021/06/04 09:42:55;;;;;;;9.83;6.10;;;25.80;1.00;;;;;;5110601;28;20975;-60
2021/06/04 09:45:43;;;;;;;8.87;6.50;;;25.90;1.00;;;;;;5110852;28;20875;-60
2021/06/04 09:48:10;;;;;;;7.77;6.40;;;26.20;1.00;;;;;;5110846;28;20530;-58
2021/06/04 09:50:39;;;;;;;7.63;5.97;;;26.40;1.00;;;;;;5111486;27;20439;-59
2021/06/04 09:53:26;;;;;;;7.67;5.73;;;26.70;1.00;;;;;;5092590;28;20864;-59
2021/06/04 09:56:13;;;;;;;7.80;5.90;;;26.90;1.00;;;;;;5110372;28;20447;-59
2021/06/04 09:58:47;;;;;;;13.53;6.07;;;27.00;1.00;;;;;;5069836;28;20984;-60
2021/06/04 10:01:16;;;;;;;7.47;6.23;;;27.00;1.00;;;;;;5090747;28;20527;-59
2021/06/04 10:03:41;;;;;;;8.83;5.70;;;26.90;1.00;;;;;;5110952;28;20688;-61
2021/06/04 10:06:07;;;;;;;6.43;5.80;;;26.90;1.00;;;;;;5110600;28;20440;-60
2021/06/04 10:08:47;;;;;;;7.67;6.40;;;26.90;1.00;;;;;;5111192;28;20692;-60
2021/06/04 10:11:22;;;;;;;6.80;6.20;;;27.30;1.00;;;;;;5110737;28;20189;-59
2021/06/04 10:13:54;;;;;;;8.90;6.60;;;27.30;1.00;;;;;;5090938;28;20806;-60
2021/06/04 10:19:32;;;;;;;7.90;6.13;;;27.50;1.00;;;;;;5090743;28;20859;-59
2021/06/04 10:22:26;;;;;;;9.30;6.43;;;28.00;1.00;;;;;;5090355;28;20480;-61
2021/06/04 10:25:00;;;;;;;7.90;7.10;;;28.30;1.00;;;;;;5090487;28;20549;-60
2021/06/04 10:27:25;;;;;;;8.90;6.80;;;28.50;1.00;;;;;;5090400;28;20428;-60
2021/06/04 10:30:11;;;;;;;6.80;6.10;;;28.80;1.00;;;;;;5093295;28;20440;-59
2021/06/04 10:33:08;;;;;;;7.40;6.33;;;28.90;1.00;;;;;;5092966;28;20207;-60
2021/06/04 10:35:48;;;;;;;7.13;6.43;;;29.00;1.00;;;;;;5091941;28;20428;-60
2021/06/04 10:38:42;;;;;;;8.20;6.40;;;28.90;1.00;;;;;;5110464;28;20455;-60
2021/06/04 10:41:12;;;;;;;9.83;6.10;;;29.00;1.00;;;;;;5110472;28;20864;-60
2021/06/04 10:44:18;;;;;;;8.33;6.10;;;29.10;1.00;;;;;;5110153;28;20962;-60
2021/06/04 10:47:01;;;;;;;7.13;6.43;;;29.20;1.00;;;;;;5100077;28;20439;-59
2021/06/04 10:49:46;;;;;;;8.37;6.10;;;29.30;1.00;;;;;;5108588;28;20484;-61
2021/06/04 10:52:39;;;;;;;8.20;6.63;;;29.40;1.00;;;;;;5110315;28;20434;-59
2021/06/04 10:55:14;;;;;;;8.00;6.47;;;29.60;1.00;;;;;;5110533;28;20432;-59
2021/06/04 10:58:06;;;;;;;6.87;6.33;;;29.80;1.00;;;;;;5110131;28;20442;-61
2021/06/04 11:00:56;;;;;;;8.10;6.73;;;30.00;1.00;;;;;;5110076;28;20801;-59
2021/06/04 11:03:53;;;;;;;11.27;6.63;;;30.10;1.00;;;;;;5092136;28;20453;-59
2021/06/04 11:06:47;;;;;;;7.90;6.67;;;30.40;1.00;;;;;;5108863;28;20431;-60
2021/06/04 11:09:29;;;;;;;6.57;5.97;;;30.70;1.00;;;;;;5106873;28;20467;-60
2021/06/04 11:12:21;;;;;;;15.37;6.93;;;30.90;1.00;;;;;;5086927;28;20435;-59
2021/06/04 11:15:06;;;;;;;7.13;6.20;;;31.30;1.00;;;;;;5090084;28;20436;-59
2021/06/04 11:17:58;;;;;;;6.27;5.67;;;31.40;1.00;;;;;;5108456;28;20514;-60
2021/06/04 11:20:34;;;;;;;7.37;5.30;;;31.50;1.00;;;;;;5099916;28;20443;-61
2021/06/04 11:23:09;;;;;;;6.33;5.70;;;31.60;1.00;;;;;;5093171;28;20432;-61
2021/06/04 11:25:45;;;;;;;6.07;5.40;;;31.80;1.00;;;;;;5103398;28;20463;-61
2021/06/04 11:28:41;;;;;;;7.20;5.20;;;31.50;1.00;;;;;;5099187;28;20431;-62
2021/06/04 11:31:18;;;;;;;5.63;5.20;;;31.50;1.00;;;;;;5102571;28;21022;-61
2021/06/04 11:33:49;;;;;;;5.47;4.90;;;31.40;1.00;;;;;;5106136;28;20444;-61
2021/06/04 11:36:34;;;;;;;7.37;5.20;;;31.30;1.00;;;;;;5093255;28;20452;-61
2021/06/04 11:39:05;;;;;;;7.67;5.20;;;31.30;1.00;;;;;;5105352;28;20454;-62
2021/06/04 11:41:55;;;;;;;6.13;5.53;;;31.60;1.00;;;;;;5099949;28;20472;-61
2021/06/04 11:44:23;;;;;;;5.67;5.10;;;31.70;1.00;;;;;;5061870;28;20606;-61
2021/06/04 11:47:21;;;;;;;6.33;5.83;;;31.80;1.00;;;;;;5111898;28;20428;-60
2021/06/04 11:49:52;;;;;;;5.57;5.10;;;32.30;1.00;;;;;;5109303;27;20902;-61
2021/06/04 11:52:41;;;;;;;5.03;4.53;;;32.70;1.00;;;;;;5111564;28;20428;-62
2021/06/04 11:55:27;;;;;;;5.53;5.03;;;33.00;1.00;;;;;;5112549;28;20432;-61
2021/06/04 11:58:03;;;;;;;6.20;4.90;;;32.40;1.00;;;;;;5095841;28;21010;-62
2021/06/04 12:00:36;;;;;;;5.17;4.87;;;31.90;1.00;;;;;;5112746;28;20495;-60
2021/06/04 12:03:07;;;;;;;5.67;5.17;;;31.60;1.00;;;;;;5102287;28;20448;-61
2021/06/04 12:05:39;;;;;;;7.57;4.80;;;30.90;1.00;;;;;;5092349;28;20504;-62
2021/06/04 12:08:31;;;;;;;6.40;5.13;;;30.20;1.00;;;;;;5092266;28;20435;-61
2021/06/04 12:11:18;;;;;;;5.90;5.10;;;30.20;1.00;;;;;;5097966;28;20456;-62
2021/06/04 12:14:04;;;;;;;5.93;5.30;;;29.90;1.00;;;;;;5073513;28;20433;-60
2021/06/04 12:16:33;;;;;;;6.63;5.00;;;30.00;1.00;;;;;;5092104;28;20493;-61
2021/06/04 12:19:14;;;;;;;9.43;5.37;;;29.70;1.00;;;;;;5097690;28;20928;-60
2021/06/04 12:21:43;;;;;;;5.80;4.70;;;29.60;1.00;;;;;;5112474;27;20444;-60
2021/06/04 12:24:20;;;;;;;7.07;5.00;;;29.60;1.00;;;;;;5110799;28;20497;-59
2021/06/04 12:26:58;;;;;;;7.00;4.63;;;29.50;1.00;;;;;;5111614;28;20458;-61
2021/06/04 12:29:24;;;;;;;5.93;4.77;;;29.30;1.00;;;;;;5092366;28;20436;-62
2021/06/04 12:31:58;;;;;;;5.57;4.60;;;29.30;1.00;;;;;;5111981;27;20435;-60
2021/06/04 12:34:39;;;;;;;6.43;5.03;;;29.40;1.00;;;;;;5092635;28;20530;-59
2021/06/04 12:37:24;;;;;;;6.17;4.63;;;29.30;1.00;;;;;;5111758;28;20435;-61
2021/06/04 12:40:07;;;;;;;4.90;4.40;;;29.30;1.00;;;;;;5107747;28;20436;-60
2021/06/04 12:42:36;;;;;;;9.40;4.53;;;29.30;1.00;;;;;;5111745;28;20749;-59
2021/06/04 12:45:49;;;;;;;7.83;5.07;;;29.40;1.00;;;;;;5111783;28;20459;-59
2021/06/04 12:48:22;;;;;;;7.60;4.37;;;29.30;1.00;;;;;;5009395;28;20494;-60
2021/06/04 12:51:04;;;;;;;3.60;3.40;;;29.10;1.00;;;;;;5006714;28;20441;-61
2021/06/04 12:53:38;;;;;;;5.50;5.07;;;29.00;1.00;;;;;;5053258;28;20451;-60
2021/06/04 12:56:05;;;;;;;4.40;4.00;;;28.90;1.00;;;;;;5095994;28;20497;-61
2021/06/04 12:58:44;;;;;;;5.30;4.40;;;29.10;1.00;;;;;;5091610;28;20957;-59
2021/06/04 13:01:16;;;;;;;5.23;4.43;;;29.10;1.00;;;;;;5084462;27;20435;-60
2021/06/04 13:03:49;;;;;;;4.33;3.80;;;29.10;1.00;;;;;;5102340;28;20813;-59
2021/06/04 13:06:27;;;;;;;8.07;4.53;;;29.00;1.00;;;;;;5091529;28;20491;-60
2021/06/04 13:08:53;;;;;;;6.00;4.10;;;29.10;1.00;;;;;;5110814;28;20439;-59
2021/06/04 13:11:47;;;;;;;7.47;4.60;;;29.10;1.00;;;;;;5111324;28;20436;-60
2021/06/04 13:14:16;;;;;;;7.00;4.50;;;29.20;1.00;;;;;;5111465;28;20239;-61
2021/06/04 13:16:42;;;;;;;5.67;4.03;;;29.30;1.00;;;;;;5110850;28;20448;-61
2021/06/04 13:19:15;;;;;;;4.63;4.23;;;29.40;1.00;;;;;;5092640;28;20438;-60
2021/06/04 13:21:42;;;;;;;13.30;4.73;;;29.40;1.00;;;;;;5110835;28;20181;-58
2021/06/04 13:24:15;;;;;;;6.17;4.37;;;29.20;1.00;;;;;;5110309;28;20964;-60
2021/06/04 13:26:44;;;;;;;5.40;4.90;;;29.50;1.00;;;;;;5110451;28;20793;-60
2021/06/04 13:29:54;;;;;;;5.47;4.90;;;29.50;1.00;;;;;;5110270;28;20470;-60
2021/06/04 13:32:25;;;;;;;6.30;3.97;;;29.50;1.00;;;;;;5094022;28;20447;-60